Terminal Aerodrome Forecast
Issued by NWS

Home | Current Version | Previous Version | Text Only | Print | Product List | Glossary On
Versions: 1 2 3 4 5 6 7 8 9 10 11 12 13 14 15 16 17
000
FTUS43 KIND 301700
TAFLAF
TAF
KLAF 301725Z 3018/0118 27009KT P6SM SCT200
     FM301900 30008KT P6SM VCTS BKN035CB
     FM010100 31007KT P6SM BKN150
     FM010600 33004KT P6SM SCT150
      TEMPO 0107/0111 3SM BR
     FM011400 03003KT P6SM SCT070=

USA.gov is the U.S. government's official web portal to all federal, state and local government web resources and services.